Time;durP1;ratioP1;P1;durP2;ratioP2;P2;SDS_P1;SDS_P2;PMS_P1;PMS_P2;Temp;Humidity;BMP_temperature;BMP_pressure;BME280_temperature;BME280_humidity;BME280_pressure;Samples;Min_cycle;Max_cycle;Signal;HPM_P1;HPM_P2
2023/03/28 00:00:22;;;;;;;12.45;1.50;;;;;;;;;;5069222;28;20051;-70
2023/03/28 00:02:50;;;;;;;16.55;2.22;;;;;;;;;;5071872;28;20827;-70
2023/03/28 00:05:18;;;;;;;14.25;1.85;;;;;;;;;;5068184;28;20505;-70
2023/03/28 00:07:46;;;;;;;18.17;2.20;;;;;;;;;;5089409;28;20060;-70
2023/03/28 00:10:14;;;;;;;21.52;2.33;;;;;;;;;;5063876;28;20087;-70
2023/03/28 00:12:41;;;;;;;19.52;2.20;;;;;;;;;;5080746;28;20051;-70
2023/03/28 00:15:08;;;;;;;17.40;1.70;;;;;;;;;;5070399;28;20056;-70
2023/03/28 00:17:36;;;;;;;10.73;1.98;;;;;;;;;;5088768;28;20052;-70
2023/03/28 00:20:04;;;;;;;17.45;2.33;;;;;;;;;;5081566;28;20541;-70
2023/03/28 00:22:33;;;;;;;16.27;2.05;;;;;;;;;;5088984;28;20068;-70
2023/03/28 00:25:02;;;;;;;22.27;2.67;;;;;;;;;;5088352;28;20048;-70
2023/03/28 00:27:29;;;;;;;15.90;1.83;;;;;;;;;;5065722;28;20135;-70
2023/03/28 00:29:57;;;;;;;18.80;1.83;;;;;;;;;;5077790;28;20153;-70
2023/03/28 00:32:24;;;;;;;14.13;1.90;;;;;;;;;;5086652;28;20069;-70
2023/03/28 00:34:51;;;;;;;13.45;2.22;;;;;;;;;;5083054;28;20459;-70
2023/03/28 00:37:19;;;;;;;21.02;2.50;;;;;;;;;;5086336;28;20074;-70
2023/03/28 00:39:49;;;;;;;17.73;1.92;;;;;;;;;;5074849;28;20408;-70
2023/03/28 00:42:17;;;;;;;9.65;1.60;;;;;;;;;;5077989;28;20059;-70
2023/03/28 00:44:46;;;;;;;16.20;1.75;;;;;;;;;;5083867;28;20056;-70
2023/03/28 00:47:19;;;;;;;19.80;2.00;;;;;;;;;;5064665;28;20047;-70
2023/03/28 00:49:48;;;;;;;14.43;2.15;;;;;;;;;;5084626;28;20048;-70
2023/03/28 00:52:17;;;;;;;15.40;1.67;;;;;;;;;;5081099;28;20059;-70
2023/03/28 00:54:44;;;;;;;14.25;2.80;;;;;;;;;;5078845;28;20075;-70
2023/03/28 00:57:14;;;;;;;12.05;1.67;;;;;;;;;;5083018;28;20498;-70
2023/03/28 00:59:42;;;;;;;15.30;1.75;;;;;;;;;;5081310;28;20043;-70
2023/03/28 01:02:09;;;;;;;17.40;1.67;;;;;;;;;;5077488;28;20056;-70
2023/03/28 01:04:38;;;;;;;21.08;1.70;;;;;;;;;;5079646;28;20063;-70
2023/03/28 01:07:06;;;;;;;15.18;1.63;;;;;;;;;;5066319;28;20059;-70
2023/03/28 01:09:33;;;;;;;10.55;1.52;;;;;;;;;;5079411;28;20123;-70
2023/03/28 01:12:01;;;;;;;20.67;1.90;;;;;;;;;;5081802;28;20056;-70
2023/03/28 01:14:30;;;;;;;20.05;2.20;;;;;;;;;;5084009;28;20048;-70
2023/03/28 01:16:57;;;;;;;17.33;3.38;;;;;;;;;;5078818;28;20040;-70
2023/03/28 01:19:32;;;;;;;13.90;1.98;;;;;;;;;;5082402;28;20044;-70
2023/03/28 01:22:25;;;;;;;13.25;1.33;;;;;;;;;;5077720;28;20056;-70
2023/03/28 01:25:19;;;;;;;16.80;1.42;;;;;;;;;;5081251;28;20485;-70
2023/03/28 01:27:51;;;;;;;11.50;1.48;;;;;;;;;;4998612;28;20136;-70
2023/03/28 01:30:28;;;;;;;11.75;1.17;;;;;;;;;;5066819;28;20052;-70
2023/03/28 01:33:16;;;;;;;9.00;1.05;;;;;;;;;;5066989;28;20052;-70
2023/03/28 01:36:02;;;;;;;16.80;1.58;;;;;;;;;;5085314;28;20059;-70
2023/03/28 01:38:34;;;;;;;15.00;1.45;;;;;;;;;;5086035;28;20044;-70
2023/03/28 01:41:05;;;;;;;11.57;1.38;;;;;;;;;;5074098;28;20052;-70
2023/03/28 01:43:37;;;;;;;13.38;1.52;;;;;;;;;;5078183;28;20048;-70
2023/03/28 01:46:07;;;;;;;9.55;1.42;;;;;;;;;;5081093;28;20505;-70
2023/03/28 01:48:39;;;;;;;11.80;1.67;;;;;;;;;;5068744;28;20044;-70
2023/03/28 01:51:10;;;;;;;9.30;1.20;;;;;;;;;;5080010;28;20563;-70
2023/03/28 01:53:43;;;;;;;12.45;1.60;;;;;;;;;;5068083;28;20052;-70
2023/03/28 01:56:12;;;;;;;10.40;1.30;;;;;;;;;;5065193;28;20528;-70
2023/03/28 01:58:45;;;;;;;14.85;1.58;;;;;;;;;;5066757;28;20444;-70
2023/03/28 02:01:14;;;;;;;20.40;1.77;;;;;;;;;;5085858;28;20052;-70
2023/03/28 02:03:43;;;;;;;14.50;1.52;;;;;;;;;;5082204;28;20052;-70
2023/03/28 02:06:11;;;;;;;15.23;2.15;;;;;;;;;;5086832;28;20052;-70
2023/03/28 02:08:41;;;;;;;10.13;1.10;;;;;;;;;;5079363;28;20059;-70
2023/03/28 02:11:11;;;;;;;6.80;0.93;;;;;;;;;;5079299;28;20525;-70
2023/03/28 02:13:42;;;;;;;7.75;0.95;;;;;;;;;;5077620;28;20051;-70
2023/03/28 02:16:10;;;;;;;9.63;1.30;;;;;;;;;;5077821;28;20043;-70
2023/03/28 02:18:40;;;;;;;8.25;1.13;;;;;;;;;;5064438;28;20391;-70
2023/03/28 02:21:10;;;;;;;11.55;1.20;;;;;;;;;;5064042;28;20143;-70
2023/03/28 02:23:38;;;;;;;11.50;1.80;;;;;;;;;;5066422;28;20161;-70
2023/03/28 02:26:06;;;;;;;9.57;1.30;;;;;;;;;;5084494;28;20052;-70
2023/03/28 02:28:36;;;;;;;7.32;1.23;;;;;;;;;;5083495;28;20703;-70
2023/03/28 02:31:04;;;;;;;9.18;1.17;;;;;;;;;;5065324;28;20093;-70
2023/03/28 02:33:33;;;;;;;11.05;1.38;;;;;;;;;;5080417;28;20054;-70
2023/03/28 02:36:04;;;;;;;9.20;1.27;;;;;;;;;;5076386;28;20044;-70
2023/03/28 02:38:35;;;;;;;13.30;1.20;;;;;;;;;;5079658;28;20055;-70
2023/03/28 02:41:08;;;;;;;8.57;1.27;;;;;;;;;;5080087;28;20059;-70
2023/03/28 02:43:47;;;;;;;9.80;1.00;;;;;;;;;;5083414;28;20047;-70
2023/03/28 02:46:22;;;;;;;5.30;0.90;;;;;;;;;;5080114;28;20079;-71
2023/03/28 02:49:03;;;;;;;10.63;1.00;;;;;;;;;;5065917;28;20085;-70
2023/03/28 02:51:33;;;;;;;13.27;1.30;;;;;;;;;;5080636;28;20048;-70
2023/03/28 02:54:04;;;;;;;8.98;1.00;;;;;;;;;;5083968;28;20048;-70
2023/03/28 02:56:38;;;;;;;8.57;1.10;;;;;;;;;;5065621;28;20064;-70
2023/03/28 02:59:10;;;;;;;13.15;1.42;;;;;;;;;;5078370;28;20044;-70
2023/03/28 03:01:39;;;;;;;12.43;1.40;;;;;;;;;;5076457;28;20041;-70
2023/03/28 03:04:07;;;;;;;10.55;1.23;;;;;;;;;;5082454;28;20159;-70
2023/03/28 03:06:35;;;;;;;8.15;1.40;;;;;;;;;;5083459;28;20056;-70
2023/03/28 03:09:03;;;;;;;6.57;1.02;;;;;;;;;;5082060;28;20123;-70
2023/03/28 03:11:30;;;;;;;8.27;1.10;;;;;;;;;;5076754;28;20098;-70
2023/03/28 03:13:59;;;;;;;10.40;1.17;;;;;;;;;;5079467;28;20044;-70
2023/03/28 03:16:28;;;;;;;17.45;1.77;;;;;;;;;;5079043;28;20131;-70
2023/03/28 03:18:56;;;;;;;7.03;1.23;;;;;;;;;;5068755;28;20051;-70
2023/03/28 03:21:24;;;;;;;6.53;1.10;;;;;;;;;;5085946;28;20052;-70
2023/03/28 03:23:51;;;;;;;9.57;1.40;;;;;;;;;;5071904;28;20140;-70
2023/03/28 03:26:18;;;;;;;11.85;1.02;;;;;;;;;;5086707;28;20062;-70
2023/03/28 03:28:45;;;;;;;10.02;1.08;;;;;;;;;;5083577;28;20055;-69
2023/03/28 03:31:13;;;;;;;13.15;1.67;;;;;;;;;;5084963;28;20409;-69
2023/03/28 03:33:41;;;;;;;15.10;1.33;;;;;;;;;;5090704;28;20058;-69
2023/03/28 03:36:11;;;;;;;10.77;1.30;;;;;;;;;;5067730;28;20051;-69
2023/03/28 03:38:38;;;;;;;17.70;1.30;;;;;;;;;;5070656;28;20044;-69
2023/03/28 03:41:06;;;;;;;12.82;2.35;;;;;;;;;;5086602;28;20510;-71
2023/03/28 03:43:34;;;;;;;9.15;1.10;;;;;;;;;;5089707;28;20422;-69
2023/03/28 03:46:01;;;;;;;11.82;1.33;;;;;;;;;;5087972;28;20071;-70
2023/03/28 03:48:28;;;;;;;15.60;2.20;;;;;;;;;;5088431;28;20051;-72
2023/03/28 03:50:57;;;;;;;10.27;1.60;;;;;;;;;;5080701;28;20418;-69
2023/03/28 03:53:24;;;;;;;28.77;2.85;;;;;;;;;;5087736;28;20503;-69
2023/03/28 03:55:51;;;;;;;14.40;1.38;;;;;;;;;;5081566;28;20048;-69
2023/03/28 03:58:19;;;;;;;13.50;1.30;;;;;;;;;;5066830;28;20055;-69
2023/03/28 04:00:47;;;;;;;9.77;1.50;;;;;;;;;;5089482;28;20360;-69
2023/03/28 04:03:15;;;;;;;12.52;1.65;;;;;;;;;;5082149;28;20070;-70
2023/03/28 04:05:42;;;;;;;13.68;1.52;;;;;;;;;;5076380;28;20174;-70
2023/03/28 04:08:10;;;;;;;15.90;1.38;;;;;;;;;;5083838;28;20411;-70
2023/03/28 04:10:38;;;;;;;13.57;1.48;;;;;;;;;;5086985;28;20048;-69
2023/03/28 04:13:05;;;;;;;12.40;1.92;;;;;;;;;;5078401;28;20048;-70
2023/03/28 04:15:32;;;;;;;22.58;1.73;;;;;;;;;;5087267;28;20084;-70
2023/03/28 04:18:00;;;;;;;9.90;1.58;;;;;;;;;;5085088;28;20044;-69
2023/03/28 04:20:28;;;;;;;16.30;1.52;;;;;;;;;;5090292;28;20499;-70
2023/03/28 04:22:57;;;;;;;14.77;1.65;;;;;;;;;;5088312;28;20118;-69
2023/03/28 04:25:25;;;;;;;10.93;1.30;;;;;;;;;;5079745;28;20127;-70
2023/03/28 04:27:53;;;;;;;11.15;1.60;;;;;;;;;;5067067;28;20055;-69
2023/03/28 04:30:20;;;;;;;10.52;1.75;;;;;;;;;;5085172;28;20123;-70
2023/03/28 04:32:49;;;;;;;12.63;1.48;;;;;;;;;;5082942;28;20055;-69
2023/03/28 04:35:16;;;;;;;11.00;1.20;;;;;;;;;;5081831;28;20057;-69
2023/03/28 04:37:44;;;;;;;12.82;1.45;;;;;;;;;;5080355;28;20048;-69
2023/03/28 04:40:14;;;;;;;13.23;1.77;;;;;;;;;;5057896;28;20410;-69
2023/03/28 04:42:43;;;;;;;4.70;1.05;;;;;;;;;;5066223;28;20059;-69
2023/03/28 04:45:10;;;;;;;13.15;1.70;;;;;;;;;;5083503;28;20121;-69
2023/03/28 04:47:38;;;;;;;11.57;1.50;;;;;;;;;;5083037;28;20526;-70
2023/03/28 04:50:06;;;;;;;13.60;1.70;;;;;;;;;;5061684;28;20040;-69
2023/03/28 04:52:34;;;;;;;17.15;1.73;;;;;;;;;;5087529;28;20062;-69
2023/03/28 04:55:01;;;;;;;14.35;1.35;;;;;;;;;;5083528;28;20145;-72
2023/03/28 04:57:28;;;;;;;13.55;1.50;;;;;;;;;;5070823;28;20052;-70
2023/03/28 04:59:57;;;;;;;16.08;1.27;;;;;;;;;;5087024;28;20036;-69
2023/03/28 05:02:24;;;;;;;14.18;1.48;;;;;;;;;;5084150;28;20052;-69
2023/03/28 05:04:52;;;;;;;12.05;1.33;;;;;;;;;;5083251;28;20171;-70
2023/03/28 05:07:19;;;;;;;6.88;1.13;;;;;;;;;;5085379;28;20056;-69
2023/03/28 05:09:46;;;;;;;12.55;1.73;;;;;;;;;;5079484;28;20044;-69
2023/03/28 05:12:14;;;;;;;15.80;1.52;;;;;;;;;;5059785;28;20570;-72
2023/03/28 05:14:41;;;;;;;20.23;3.15;;;;;;;;;;5067613;28;20048;-71
2023/03/28 05:17:10;;;;;;;9.20;1.20;;;;;;;;;;5066466;28;20043;-70
2023/03/28 05:19:37;;;;;;;7.75;1.58;;;;;;;;;;5087878;28;20046;-69
2023/03/28 05:22:04;;;;;;;11.63;2.22;;;;;;;;;;5085695;28;20044;-69
2023/03/28 05:24:32;;;;;;;10.48;1.33;;;;;;;;;;5085756;28;20118;-70
2023/03/28 05:26:59;;;;;;;12.98;1.38;;;;;;;;;;5082226;28;20154;-70
2023/03/28 05:29:26;;;;;;;9.32;1.30;;;;;;;;;;5086295;28;20048;-70
2023/03/28 05:31:53;;;;;;;11.30;1.30;;;;;;;;;;5086713;28;20051;-70
2023/03/28 05:34:23;;;;;;;16.10;1.33;;;;;;;;;;5063762;28;20052;-70
2023/03/28 05:36:51;;;;;;;10.15;1.83;;;;;;;;;;5084168;28;20056;-70
2023/03/28 05:39:18;;;;;;;10.48;1.60;;;;;;;;;;5084589;28;20055;-71
2023/03/28 05:41:45;;;;;;;10.25;1.63;;;;;;;;;;5085778;28;20052;-70
2023/03/28 05:44:13;;;;;;;10.73;1.20;;;;;;;;;;5077420;28;20053;-70
2023/03/28 05:46:40;;;;;;;11.45;1.55;;;;;;;;;;5082295;28;20048;-69
2023/03/28 05:49:07;;;;;;;13.40;1.48;;;;;;;;;;5066708;28;20052;-69
2023/03/28 05:51:36;;;;;;;13.13;1.52;;;;;;;;;;5080290;28;20044;-68
2023/03/28 05:54:03;;;;;;;8.38;1.75;;;;;;;;;;5063389;28;20056;-69
2023/03/28 05:56:34;;;;;;;17.45;1.40;;;;;;;;;;5085667;28;20048;-69
2023/03/28 05:59:01;;;;;;;13.27;2.08;;;;;;;;;;5083901;28;20498;-69
2023/03/28 06:01:30;;;;;;;8.50;0.88;;;;;;;;;;5087448;28;20047;-69
2023/03/28 06:03:57;;;;;;;9.30;1.27;;;;;;;;;;5084332;28;20051;-69
2023/03/28 06:06:24;;;;;;;10.02;1.33;;;;;;;;;;5087119;28;20123;-69
2023/03/28 06:08:53;;;;;;;7.07;1.10;;;;;;;;;;5082300;28;20049;-70
2023/03/28 06:11:20;;;;;;;12.82;1.10;;;;;;;;;;5077290;28;20055;-69
2023/03/28 06:13:47;;;;;;;17.05;1.60;;;;;;;;;;5085495;28;20403;-70
2023/03/28 06:16:15;;;;;;;12.30;1.50;;;;;;;;;;5074882;28;20056;-70
2023/03/28 06:18:42;;;;;;;8.38;1.35;;;;;;;;;;5064403;28;20071;-70
2023/03/28 06:21:09;;;;;;;6.82;1.23;;;;;;;;;;5084766;28;20372;-70
2023/03/28 06:23:36;;;;;;;11.50;1.58;;;;;;;;;;5082195;28;20044;-70
2023/03/28 06:26:05;;;;;;;8.13;1.42;;;;;;;;;;5087563;28;20055;-70
2023/03/28 06:28:32;;;;;;;7.35;1.10;;;;;;;;;;5081428;28;20494;-70
2023/03/28 06:31:00;;;;;;;9.30;1.40;;;;;;;;;;5068567;28;20048;-70
2023/03/28 06:33:27;;;;;;;9.23;1.20;;;;;;;;;;5082373;28;20040;-70
2023/03/28 06:35:54;;;;;;;7.68;1.20;;;;;;;;;;5084349;28;20044;-70
2023/03/28 06:38:22;;;;;;;9.35;1.23;;;;;;;;;;5061475;28;20056;-70
2023/03/28 06:40:49;;;;;;;7.22;0.90;;;;;;;;;;5083236;28;20047;-70
2023/03/28 06:43:17;;;;;;;6.00;0.95;;;;;;;;;;5059847;28;20063;-70
2023/03/28 06:45:45;;;;;;;12.57;1.23;;;;;;;;;;5081703;28;20051;-70
2023/03/28 06:48:12;;;;;;;10.25;1.00;;;;;;;;;;5082650;28;20052;-70
2023/03/28 06:50:39;;;;;;;12.88;1.58;;;;;;;;;;5081549;28;20044;-70
2023/03/28 06:53:06;;;;;;;9.07;1.20;;;;;;;;;;5082538;28;20040;-70
2023/03/28 06:55:35;;;;;;;7.03;0.93;;;;;;;;;;5088584;28;20142;-70
2023/03/28 06:58:02;;;;;;;8.60;1.52;;;;;;;;;;5087350;28;20483;-70
2023/03/28 07:00:31;;;;;;;6.55;1.58;;;;;;;;;;5085193;28;20044;-70
2023/03/28 07:02:58;;;;;;;3.67;0.98;;;;;;;;;;5087174;28;20526;-71
2023/03/28 07:05:26;;;;;;;6.07;1.05;;;;;;;;;;5066191;28;20064;-70
2023/03/28 07:07:53;;;;;;;6.30;1.05;;;;;;;;;;5088775;28;20411;-70
2023/03/28 07:10:20;;;;;;;9.02;1.13;;;;;;;;;;5087003;28;20050;-70
2023/03/28 07:12:47;;;;;;;4.43;0.90;;;;;;;;;;5088254;28;20059;-70
2023/03/28 07:15:15;;;;;;;9.00;0.98;;;;;;;;;;5065985;28;20074;-70
2023/03/28 07:17:43;;;;;;;6.82;1.05;;;;;;;;;;5065795;28;20048;-70
2023/03/28 07:20:11;;;;;;;8.45;1.10;;;;;;;;;;5089897;28;20497;-70
2023/03/28 07:22:38;;;;;;;6.40;1.20;;;;;;;;;;5088329;28;20162;-71
2023/03/28 07:25:06;;;;;;;5.97;0.98;;;;;;;;;;5087921;28;20114;-70
2023/03/28 07:27:34;;;;;;;4.20;0.90;;;;;;;;;;5086165;28;20059;-71
2023/03/28 07:30:01;;;;;;;6.70;0.98;;;;;;;;;;5082208;28;20066;-71
2023/03/28 07:32:28;;;;;;;7.57;1.40;;;;;;;;;;5086357;28;20505;-70
2023/03/28 07:34:57;;;;;;;3.72;0.73;;;;;;;;;;5089248;28;20269;-71
2023/03/28 07:37:24;;;;;;;9.15;1.10;;;;;;;;;;5087458;28;20048;-70
2023/03/28 07:39:53;;;;;;;7.13;0.80;;;;;;;;;;5083680;28;20052;-71
2023/03/28 07:42:20;;;;;;;6.25;0.90;;;;;;;;;;5086617;28;20054;-71
2023/03/28 07:44:47;;;;;;;12.45;1.70;;;;;;;;;;5087248;28;20079;-71
2023/03/28 07:47:15;;;;;;;9.02;1.08;;;;;;;;;;5084919;28;20574;-71
2023/03/28 07:49:44;;;;;;;3.67;0.80;;;;;;;;;;5082895;28;20048;-71
2023/03/28 07:52:13;;;;;;;4.68;0.82;;;;;;;;;;5081344;28;20060;-71
2023/03/28 07:54:40;;;;;;;8.23;0.93;;;;;;;;;;5083008;28;20064;-71
2023/03/28 07:57:07;;;;;;;3.85;0.85;;;;;;;;;;5086441;28;20426;-71
2023/03/28 07:59:35;;;;;;;7.75;0.95;;;;;;;;;;5089071;28;20051;-71
2023/03/28 08:02:02;;;;;;;5.88;1.08;;;;;;;;;;5077243;28;20106;-71
2023/03/28 08:04:30;;;;;;;7.68;0.90;;;;;;;;;;5074639;28;20051;-71
2023/03/28 08:06:57;;;;;;;8.18;1.00;;;;;;;;;;5087371;28;20055;-71
2023/03/28 08:09:26;;;;;;;5.72;1.13;;;;;;;;;;5085500;28;20062;-71
2023/03/28 08:11:59;;;;;;;5.72;0.73;;;;;;;;;;5070570;28;20062;-71
2023/03/28 08:14:26;;;;;;;7.45;0.98;;;;;;;;;;5060936;28;20076;-71
2023/03/28 08:16:53;;;;;;;7.70;0.82;;;;;;;;;;5079554;28;20048;-71
2023/03/28 08:19:21;;;;;;;4.82;0.80;;;;;;;;;;5080820;28;20088;-71
2023/03/28 08:21:48;;;;;;;3.72;0.80;;;;;;;;;;5070645;28;20054;-71
2023/03/28 08:24:15;;;;;;;6.72;0.80;;;;;;;;;;5085496;28;20634;-71
2023/03/28 08:26:45;;;;;;;5.80;1.05;;;;;;;;;;5064032;28;20764;-72
2023/03/28 08:29:12;;;;;;;5.40;0.60;;;;;;;;;;5086715;28;20051;-71
2023/03/28 08:31:39;;;;;;;4.82;0.90;;;;;;;;;;5087637;28;20165;-71
2023/03/28 08:34:07;;;;;;;4.97;0.45;;;;;;;;;;5085061;28;20063;-71
2023/03/28 08:36:37;;;;;;;8.00;0.82;;;;;;;;;;5086742;28;20447;-71
2023/03/28 08:39:05;;;;;;;4.15;0.60;;;;;;;;;;5068159;28;20139;-72
2023/03/28 08:41:55;;;;;;;7.45;0.70;;;;;;;;;;5068454;28;20052;-71
2023/03/28 08:44:46;;;;;;;4.07;0.60;;;;;;;;;;5083669;28;20428;-71
2023/03/28 08:47:17;;;;;;;5.50;0.90;;;;;;;;;;5063586;28;20048;-72
2023/03/28 08:49:46;;;;;;;4.38;1.48;;;;;;;;;;5060418;28;20044;-71
2023/03/28 08:52:14;;;;;;;5.68;1.23;;;;;;;;;;5059010;28;20087;-71
2023/03/28 08:54:44;;;;;;;5.95;1.10;;;;;;;;;;5087173;28;20059;-71
2023/03/28 08:57:16;;;;;;;6.85;1.05;;;;;;;;;;5080204;28;20483;-71
2023/03/28 08:59:46;;;;;;;5.30;1.00;;;;;;;;;;5085850;28;20125;-72
2023/03/28 09:02:18;;;;;;;6.15;1.15;;;;;;;;;;5084962;28;20048;-72
2023/03/28 09:04:45;;;;;;;4.00;0.70;;;;;;;;;;5086561;28;20044;-72
2023/03/28 09:07:16;;;;;;;7.00;1.13;;;;;;;;;;5088561;28;20062;-71
2023/03/28 09:09:48;;;;;;;7.38;0.88;;;;;;;;;;5088610;28;20048;-72
2023/03/28 09:12:23;;;;;;;4.45;0.95;;;;;;;;;;5087657;28;20051;-71
2023/03/28 09:15:08;;;;;;;6.88;0.98;;;;;;;;;;5083637;28;20059;-71
2023/03/28 09:17:41;;;;;;;6.90;1.10;;;;;;;;;;5072912;28;20044;-72
2023/03/28 09:20:13;;;;;;;6.33;1.20;;;;;;;;;;5085909;28;20127;-71
2023/03/28 09:22:45;;;;;;;5.70;1.10;;;;;;;;;;5080533;28;20056;-71
2023/03/28 09:25:18;;;;;;;5.07;1.10;;;;;;;;;;5068479;28;20052;-71
2023/03/28 09:27:52;;;;;;;5.22;1.13;;;;;;;;;;5081331;28;20055;-72
2023/03/28 09:30:21;;;;;;;5.40;1.10;;;;;;;;;;5085379;28;20047;-71
2023/03/28 09:32:49;;;;;;;8.13;0.95;;;;;;;;;;5067456;28;20050;-71
2023/03/28 09:35:17;;;;;;;6.65;1.30;;;;;;;;;;5085052;28;20126;-72
2023/03/28 09:37:46;;;;;;;6.68;1.10;;;;;;;;;;5088269;28;20131;-71
2023/03/28 09:40:16;;;;;;;5.95;1.25;;;;;;;;;;5062944;28;20527;-72
2023/03/28 09:42:48;;;;;;;6.78;1.23;;;;;;;;;;5085521;28;20059;-72
2023/03/28 09:45:23;;;;;;;6.53;1.20;;;;;;;;;;5086642;28;20371;-72
2023/03/28 09:47:51;;;;;;;7.53;1.20;;;;;;;;;;5084929;28;20503;-71
2023/03/28 09:50:19;;;;;;;11.60;1.38;;;;;;;;;;5087025;28;20047;-72
2023/03/28 09:52:46;;;;;;;7.22;1.33;;;;;;;;;;5081451;28;20066;-71
2023/03/28 09:55:17;;;;;;;5.65;1.30;;;;;;;;;;5066280;28;20054;-72
2023/03/28 09:58:01;;;;;;;5.75;1.48;;;;;;;;;;5083001;28;20066;-72
2023/03/28 10:00:34;;;;;;;7.10;1.20;;;;;;;;;;5078119;28;20402;-72
2023/03/28 10:03:01;;;;;;;8.20;1.57;;;;;;;;;;5079558;28;20591;-72
2023/03/28 10:05:33;;;;;;;6.47;1.40;;;;;;;;;;5085223;28;20278;-72
2023/03/28 10:08:03;;;;;;;10.45;1.23;;;;;;;;;;5054206;28;20051;-70
2023/03/28 10:10:31;;;;;;;4.32;1.20;;;;;;;;;;5058468;28;20051;-71
2023/03/28 10:12:59;;;;;;;3.67;1.08;;;;;;;;;;5055248;28;20132;-71
2023/03/28 10:15:32;;;;;;;7.80;1.40;;;;;;;;;;5068188;28;20048;-70
2023/03/28 10:18:00;;;;;;;11.55;1.63;;;;;;;;;;5061700;28;20094;-71
2023/03/28 10:20:28;;;;;;;7.88;1.70;;;;;;;;;;5067658;28;20479;-71
2023/03/28 10:22:56;;;;;;;6.78;1.60;;;;;;;;;;5064597;28;20051;-70
2023/03/28 10:25:30;;;;;;;6.32;1.60;;;;;;;;;;5061608;28;20815;-71
2023/03/28 10:28:01;;;;;;;13.07;2.10;;;;;;;;;;5065748;28;20158;-71
2023/03/28 10:30:29;;;;;;;6.43;1.30;;;;;;;;;;5060908;28;20528;-71
2023/03/28 10:33:20;;;;;;;4.72;1.65;;;;;;;;;;5060430;28;20514;-71
2023/03/28 10:35:48;;;;;;;9.32;1.70;;;;;;;;;;5062159;28;20110;-71
2023/03/28 10:38:18;;;;;;;9.20;1.35;;;;;;;;;;5052681;28;20434;-71
2023/03/28 10:40:52;;;;;;;9.18;1.67;;;;;;;;;;5057771;28;20087;-71
2023/03/28 10:43:19;;;;;;;7.95;1.65;;;;;;;;;;5054730;28;20044;-71
2023/03/28 10:45:49;;;;;;;5.57;1.73;;;;;;;;;;5062897;28;20083;-71
2023/03/28 10:48:19;;;;;;;11.07;1.73;;;;;;;;;;5063430;28;20060;-71
2023/03/28 10:50:48;;;;;;;6.22;1.80;;;;;;;;;;5059104;28;20072;-71
2023/03/28 10:53:32;;;;;;;6.43;1.70;;;;;;;;;;5060269;28;20127;-71
2023/03/28 10:56:03;;;;;;;13.18;2.25;;;;;;;;;;5063072;28;20048;-71
2023/03/28 10:58:33;;;;;;;4.70;1.75;;;;;;;;;;5066216;28;20135;-71
2023/03/28 11:01:05;;;;;;;7.03;1.67;;;;;;;;;;5060786;28;20041;-71
2023/03/28 11:03:40;;;;;;;7.38;1.85;;;;;;;;;;5060206;28;20621;-71
2023/03/28 11:06:12;;;;;;;4.57;1.85;;;;;;;;;;5060215;28;20486;-71
2023/03/28 11:08:47;;;;;;;8.13;1.90;;;;;;;;;;5065177;28;20525;-71
2023/03/28 11:11:28;;;;;;;7.15;1.77;;;;;;;;;;5064710;28;20136;-71
2023/03/28 11:14:02;;;;;;;6.35;1.92;;;;;;;;;;5086069;28;20044;-71
2023/03/28 11:16:36;;;;;;;4.75;2.10;;;;;;;;;;5080718;28;20048;-71
2023/03/28 11:19:11;;;;;;;9.27;1.60;;;;;;;;;;5079037;28;20410;-71
2023/03/28 11:21:43;;;;;;;7.13;2.17;;;;;;;;;;5066772;28;20129;-71
2023/03/28 11:24:18;;;;;;;11.02;1.95;;;;;;;;;;5086038;28;20052;-71
2023/03/28 11:26:50;;;;;;;7.70;1.95;;;;;;;;;;5082210;28;20051;-71
2023/03/28 11:29:23;;;;;;;6.45;2.10;;;;;;;;;;5075600;28;20054;-71
2023/03/28 11:32:03;;;;;;;4.88;1.67;;;;;;;;;;5083634;28;20044;-71
2023/03/28 11:34:33;;;;;;;5.97;2.15;;;;;;;;;;5085023;28;20123;-71
2023/03/28 11:37:03;;;;;;;9.18;2.30;;;;;;;;;;5065868;28;20522;-71
2023/03/28 11:39:34;;;;;;;5.22;1.63;;;;;;;;;;5081925;28;20067;-71
2023/03/28 11:42:06;;;;;;;5.70;1.85;;;;;;;;;;5085195;28;20055;-71
2023/03/28 11:44:35;;;;;;;8.00;2.47;;;;;;;;;;5067728;28;20178;-71
2023/03/28 11:47:05;;;;;;;9.02;2.20;;;;;;;;;;5062835;28;20055;-71
2023/03/28 11:49:36;;;;;;;6.57;1.67;;;;;;;;;;5084194;28;20044;-71
2023/03/28 11:52:06;;;;;;;8.02;2.20;;;;;;;;;;5078784;28;20048;-71
2023/03/28 11:54:35;;;;;;;6.70;1.95;;;;;;;;;;5063867;28;20472;-71
2023/03/28 11:57:04;;;;;;;6.63;1.90;;;;;;;;;;5082169;28;20051;-71
2023/03/28 11:59:35;;;;;;;10.75;2.30;;;;;;;;;;5084964;28;20048;-71
2023/03/28 12:02:07;;;;;;;6.15;1.90;;;;;;;;;;5081084;28;20052;-71
2023/03/28 12:04:39;;;;;;;7.25;1.92;;;;;;;;;;5089532;28;20574;-71
2023/03/28 12:07:10;;;;;;;7.10;2.43;;;;;;;;;;5067602;28;20044;-72
2023/03/28 12:09:43;;;;;;;9.88;2.03;;;;;;;;;;5084415;28;20052;-71
2023/03/28 12:12:13;;;;;;;9.93;2.47;;;;;;;;;;5084885;28;20058;-71
2023/03/28 12:14:46;;;;;;;7.63;2.55;;;;;;;;;;5082834;28;20048;-71
2023/03/28 12:17:16;;;;;;;9.70;2.05;;;;;;;;;;5086439;28;20047;-71
2023/03/28 12:19:47;;;;;;;6.32;2.10;;;;;;;;;;5084280;28;20052;-71
2023/03/28 12:22:18;;;;;;;6.35;2.03;;;;;;;;;;5069372;28;20132;-71
2023/03/28 12:24:47;;;;;;;8.13;1.88;;;;;;;;;;5089000;28;20048;-71
2023/03/28 12:27:18;;;;;;;10.30;2.00;;;;;;;;;;5068143;28;20056;-71
2023/03/28 12:29:47;;;;;;;6.28;2.17;;;;;;;;;;5066736;28;20067;-71
2023/03/28 12:32:25;;;;;;;5.63;1.98;;;;;;;;;;5080801;28;20055;-71
2023/03/28 12:34:56;;;;;;;9.00;2.00;;;;;;;;;;5080674;28;20048;-71
2023/03/28 12:37:26;;;;;;;9.23;2.45;;;;;;;;;;5086107;28;20048;-71
2023/03/28 12:39:56;;;;;;;8.18;2.33;;;;;;;;;;5068204;28;20613;-71
2023/03/28 12:42:25;;;;;;;6.60;1.92;;;;;;;;;;5088288;28;20517;-71
2023/03/28 12:44:55;;;;;;;8.07;2.10;;;;;;;;;;5068434;28;20051;-71
2023/03/28 12:47:25;;;;;;;8.95;1.92;;;;;;;;;;5089993;28;20693;-71
2023/03/28 12:49:57;;;;;;;6.93;1.98;;;;;;;;;;5080981;28;20056;-71
2023/03/28 12:52:26;;;;;;;5.07;1.90;;;;;;;;;;5085033;28;20124;-71
2023/03/28 12:54:55;;;;;;;9.30;2.50;;;;;;;;;;5069426;28;20058;-71
2023/03/28 12:57:39;;;;;;;9.20;1.90;;;;;;;;;;5084862;28;20052;-72
2023/03/28 13:00:13;;;;;;;7.45;2.22;;;;;;;;;;5088598;28;20046;-71
2023/03/28 13:02:42;;;;;;;7.63;1.90;;;;;;;;;;5070625;28;20131;-71
2023/03/28 13:05:14;;;;;;;9.77;2.30;;;;;;;;;;5088397;28;20405;-71
2023/03/28 13:07:49;;;;;;;7.30;2.10;;;;;;;;;;5088993;28;20052;-72
2023/03/28 13:10:22;;;;;;;7.88;2.35;;;;;;;;;;5083132;28;20093;-71
2023/03/28 13:12:56;;;;;;;10.52;2.20;;;;;;;;;;5066206;28;20044;-71
2023/03/28 13:15:24;;;;;;;;;;;;;;;;;;5089986;28;20048;-71
2023/03/28 13:18:16;;;;;;;7.93;2.40;;;;;;;;;;5064110;28;19928;-71
2023/03/28 13:20:46;;;;;;;10.80;2.20;;;;;;;;;;5084361;28;20569;-70
2023/03/28 13:23:16;;;;;;;9.68;2.35;;;;;;;;;;5084164;28;20054;-70
2023/03/28 13:25:44;;;;;;;4.80;1.98;;;;;;;;;;5062672;28;20078;-71
2023/03/28 13:28:27;;;;;;;10.25;2.25;;;;;;;;;;5087607;28;20534;-70
2023/03/28 13:31:04;;;;;;;7.15;1.98;;;;;;;;;;5061305;28;20142;-70
2023/03/28 13:33:33;;;;;;;10.75;2.42;;;;;;;;;;5084965;28;20510;-71
2023/03/28 13:36:15;;;;;;;13.60;2.17;;;;;;;;;;5068434;28;20052;-71
2023/03/28 13:38:49;;;;;;;6.95;1.92;;;;;;;;;;5067356;28;20048;-71
2023/03/28 13:41:36;;;;;;;8.55;2.42;;;;;;;;;;5082446;28;20060;-70
2023/03/28 13:44:05;;;;;;;6.05;2.10;;;;;;;;;;5088679;28;20181;-71
2023/03/28 13:46:35;;;;;;;5.97;2.00;;;;;;;;;;5084654;28;20052;-71
2023/03/28 13:49:05;;;;;;;7.18;1.90;;;;;;;;;;5083347;28;21109;-71
2023/03/28 13:51:37;;;;;;;9.35;2.08;;;;;;;;;;5082887;28;20044;-71
2023/03/28 13:54:05;;;;;;;7.10;1.80;;;;;;;;;;5067684;28;20056;-71
2023/03/28 13:56:33;;;;;;;12.02;2.30;;;;;;;;;;5087324;28;20048;-71
2023/03/28 13:59:04;;;;;;;5.60;2.00;;;;;;;;;;5086480;28;20096;-71
2023/03/28 14:01:34;;;;;;;8.50;2.22;;;;;;;;;;5067722;28;20040;-71
2023/03/28 14:04:02;;;;;;;8.18;2.08;;;;;;;;;;5062890;28;20056;-71
2023/03/28 14:06:30;;;;;;;9.68;2.30;;;;;;;;;;5081215;28;20040;-71
2023/03/28 14:08:58;;;;;;;12.90;2.50;;;;;;;;;;5083515;28;20044;-70
2023/03/28 14:11:30;;;;;;;6.00;2.45;;;;;;;;;;5079014;28;20200;-71
2023/03/28 14:14:06;;;;;;;12.45;3.10;;;;;;;;;;5079608;28;20375;-71
2023/03/28 14:16:34;;;;;;;10.35;2.28;;;;;;;;;;5084961;28;20495;-71
2023/03/28 14:19:02;;;;;;;10.23;2.40;;;;;;;;;;5083749;28;20039;-71
2023/03/28 14:21:30;;;;;;;10.35;2.85;;;;;;;;;;5067615;28;20525;-71
2023/03/28 14:23:59;;;;;;;13.32;2.92;;;;;;;;;;5081531;28;20083;-70
2023/03/28 14:26:28;;;;;;;6.45;2.45;;;;;;;;;;5075631;28;20535;-70
2023/03/28 14:29:00;;;;;;;8.27;2.40;;;;;;;;;;5060887;28;20167;-70
2023/03/28 14:31:32;;;;;;;10.95;2.53;;;;;;;;;;5068832;28;20052;-70
2023/03/28 14:33:59;;;;;;;5.88;2.13;;;;;;;;;;5083974;28;20484;-70
2023/03/28 14:36:29;;;;;;;7.55;2.45;;;;;;;;;;5085558;28;20052;-70
2023/03/28 14:39:03;;;;;;;10.77;2.45;;;;;;;;;;5078425;28;20075;-70
2023/03/28 14:41:34;;;;;;;7.80;2.42;;;;;;;;;;5085310;28;20072;-70
2023/03/28 14:44:03;;;;;;;6.65;2.28;;;;;;;;;;5083957;28;20059;-70
2023/03/28 14:46:32;;;;;;;5.93;2.00;;;;;;;;;;5085691;28;20044;-70
2023/03/28 14:49:00;;;;;;;10.55;2.33;;;;;;;;;;5083939;28;20106;-70
2023/03/28 14:51:28;;;;;;;10.25;2.08;;;;;;;;;;5083418;28;20063;-70
2023/03/28 14:53:56;;;;;;;7.40;2.10;;;;;;;;;;5083643;28;20961;-70